Time,TemperatureF,DewpointF,PressureIn,WindDirection,WindDirectionDegrees,WindSpeedMPH,WindSpeedGustMPH,Humidity,HourlyPrecipIn,Conditions,Clouds,dailyrainin,SoftwareType,DateUTC
2013-02-25 00:06:00,38.8,38.3,29.91,SSE,157,7.4,-999.0,98,-99.99,,,0.05,Acu-Link.com,2013-02-25 08:06:00,
2013-02-25 00:21:00,39.4,38.9,29.91,NE,45,5.1,-999.0,98,-99.99,,,0.14,Acu-Link.com,2013-02-25 08:21:00,
2013-02-25 00:36:00,39.4,38.9,29.89,NE,45,3.1,-999.0,98,-99.99,,,0.21,Acu-Link.com,2013-02-25 08:36:00,
2013-02-25 00:52:00,39.4,38.9,29.88,NE,45,2.7,-999.0,98,-99.99,,,0.31,Acu-Link.com,2013-02-25 08:52:00,
2013-02-25 01:17:00,39.2,38.7,29.88,ESE,112,2.2,-999.0,98,-99.99,,,0.31,Acu-Link.com,2013-02-25 09:17:00,
2013-02-25 01:32:00,39.0,38.5,29.88,SSW,202,0.0,-999.0,98,-99.99,,,0.40,Acu-Link.com,2013-02-25 09:32:00,
2013-02-25 01:47:00,38.8,38.3,29.87,NE,45,2.2,-999.0,98,-99.99,,,0.45,Acu-Link.com,2013-02-25 09:47:00,
2013-02-25 02:02:00,39.0,38.5,29.87,WNW,292,2.2,-999.0,98,-99.99,,,0.50,Acu-Link.com,2013-02-25 10:02:00,
2013-02-25 02:18:00,39.2,38.7,29.86,ESE,112,3.1,-999.0,98,-99.99,,,0.64,Acu-Link.com,2013-02-25 10:18:00,
2013-02-25 02:33:00,39.2,38.7,29.86,NNE,22,3.8,-999.0,98,-99.99,,,0.64,Acu-Link.com,2013-02-25 10:33:00,
2013-02-25 02:48:00,39.0,38.5,29.85,SSE,157,2.7,-999.0,98,-99.99,,,0.64,Acu-Link.com,2013-02-25 10:48:00,
2013-02-25 03:03:00,39.6,39.0,29.85,East,90,3.8,-999.0,98,-99.99,,,0.64,Acu-Link.com,2013-02-25 11:03:00,
2013-02-25 03:18:00,39.6,39.0,29.84,East,90,3.1,-999.0,98,-99.99,,,0.64,Acu-Link.com,2013-02-25 11:18:00,
2013-02-25 03:34:00,39.4,38.9,29.84,East,90,2.2,-999.0,98,-99.99,,,0.64,Acu-Link.com,2013-02-25 11:34:00,
2013-02-25 03:49:00,39.6,39.0,29.83,South,180,4.7,-999.0,98,-99.99,,,0.64,Acu-Link.com,2013-02-25 11:49:00,
2013-02-25 04:04:00,39.6,39.0,29.84,SSE,157,4.3,-999.0,98,-99.99,,,0.64,Acu-Link.com,2013-02-25 12:04:00,
2013-02-25 04:19:00,39.6,39.0,29.84,SE,135,6.7,-999.0,98,-99.99,,,0.64,Acu-Link.com,2013-02-25 12:19:00,
2013-02-25 04:34:00,39.6,39.0,29.83,East,90,4.7,-999.0,98,-99.99,,,0.64,Acu-Link.com,2013-02-25 12:34:00,
2013-02-25 04:50:00,39.6,39.0,29.84,ESE,112,8.9,-999.0,98,-99.99,,,0.64,Acu-Link.com,2013-02-25 12:50:00,
2013-02-25 05:05:00,39.7,39.2,29.84,South,180,3.1,-999.0,98,-99.99,,,0.64,Acu-Link.com,2013-02-25 13:05:00,
2013-02-25 05:20:00,39.9,39.4,29.84,North,0,5.8,-999.0,98,-99.99,,,0.64,Acu-Link.com,2013-02-25 13:20:00,
2013-02-25 05:35:00,39.9,39.4,29.83,ESE,112,3.1,-999.0,98,-99.99,,,0.64,Acu-Link.com,2013-02-25 13:35:00,
2013-02-25 05:50:00,40.1,39.6,29.82,ESE,112,9.8,-999.0,98,-99.99,,,0.64,Acu-Link.com,2013-02-25 13:50:00,
2013-02-25 06:06:00,40.3,39.8,29.82,South,180,11.4,-999.0,98,-99.99,,,0.64,Acu-Link.com,2013-02-25 14:06:00,
2013-02-25 06:21:00,40.6,40.1,29.82,SSE,157,6.7,-999.0,98,-99.99,,,0.64,Acu-Link.com,2013-02-25 14:21:00,
2013-02-25 06:36:00,40.5,39.9,29.81,SSW,202,4.7,-999.0,98,-99.99,,,0.64,Acu-Link.com,2013-02-25 14:36:00,
2013-02-25 06:51:00,40.5,39.9,29.81,ESE,112,11.9,-999.0,98,-99.99,,,0.64,Acu-Link.com,2013-02-25 14:51:00,
2013-02-25 07:07:00,40.5,39.9,29.81,SSE,157,5.8,-999.0,98,-99.99,,,0.64,Acu-Link.com,2013-02-25 15:07:00,
2013-02-25 07:22:00,40.3,39.8,29.80,SSE,157,11.0,-999.0,98,-99.99,,,0.66,Acu-Link.com,2013-02-25 15:22:00,
2013-02-25 07:37:00,39.7,39.2,29.80,South,180,7.8,-999.0,98,-99.99,,,0.69,Acu-Link.com,2013-02-25 15:37:00,
2013-02-25 07:52:00,39.9,39.4,29.81,SSW,202,8.9,-999.0,98,-99.99,,,0.71,Acu-Link.com,2013-02-25 15:52:00,
2013-02-25 08:08:00,39.7,39.2,29.80,WSW,247,8.3,-999.0,98,-99.99,,,0.73,Acu-Link.com,2013-02-25 16:08:00,
2013-02-25 08:23:00,40.3,39.8,29.80,South,180,7.4,-999.0,98,-99.99,,,0.74,Acu-Link.com,2013-02-25 16:23:00,
2013-02-25 08:39:00,40.5,39.9,29.81,SW,225,3.1,-999.0,98,-99.99,,,0.76,Acu-Link.com,2013-02-25 16:39:00,
2013-02-25 08:54:00,40.6,40.1,29.82,SW,225,1.6,-999.0,98,-99.99,,,0.76,Acu-Link.com,2013-02-25 16:54:00,
2013-02-25 09:09:00,40.8,40.3,29.82,NW,315,1.6,-999.0,98,-99.99,,,0.76,Acu-Link.com,2013-02-25 17:09:00,
2013-02-25 09:24:00,40.8,40.3,29.84,SSE,157,4.3,-999.0,98,-99.99,,,0.78,Acu-Link.com,2013-02-25 17:24:00,
2013-02-25 09:39:00,41.2,40.7,29.84,SW,225,3.1,-999.0,98,-99.99,,,0.80,Acu-Link.com,2013-02-25 17:39:00,
2013-02-25 09:55:00,42.1,41.6,29.84,South,180,0.0,-999.0,98,-99.99,,,0.80,Acu-Link.com,2013-02-25 17:55:00,
2013-02-25 10:10:00,42.1,41.6,29.84,SW,225,5.8,-999.0,98,-99.99,,,0.80,Acu-Link.com,2013-02-25 18:10:00,
2013-02-25 10:25:00,44.1,43.5,29.87,West,270,6.3,-999.0,98,-99.99,,,0.80,Acu-Link.com,2013-02-25 18:25:00,
2013-02-25 10:40:00,45.0,44.4,29.88,WSW,247,6.7,-999.0,98,-99.99,,,0.80,Acu-Link.com,2013-02-25 18:40:00,
2013-02-25 10:55:00,44.1,43.5,29.88,SW,225,8.9,-999.0,98,-99.99,,,0.81,Acu-Link.com,2013-02-25 18:55:00,
2013-02-25 11:11:00,43.5,43.0,29.89,SSW,202,9.4,-999.0,98,-99.99,,,0.81,Acu-Link.com,2013-02-25 19:11:00,
2013-02-25 11:26:00,44.4,43.9,29.92,WSW,247,8.9,-999.0,98,-99.99,,,0.81,Acu-Link.com,2013-02-25 19:26:00,
2013-02-25 11:41:00,44.4,43.9,29.92,South,180,9.8,-999.0,98,-99.99,,,0.81,Acu-Link.com,2013-02-25 19:41:00,
2013-02-25 11:56:00,44.6,44.1,29.94,WNW,292,6.3,-999.0,98,-99.99,,,0.81,Acu-Link.com,2013-02-25 19:56:00,
2013-02-25 12:12:00,45.1,44.6,29.95,NNW,337,7.4,-999.0,98,-99.99,,,0.81,Acu-Link.com,2013-02-25 20:12:00,
2013-02-25 12:27:00,45.0,44.4,29.95,WNW,292,4.3,-999.0,98,-99.99,,,0.81,Acu-Link.com,2013-02-25 20:27:00,
2013-02-25 12:42:00,45.5,45.0,29.96,SSW,202,4.3,-999.0,98,-99.99,,,0.81,Acu-Link.com,2013-02-25 20:42:00,
2013-02-25 12:57:00,45.9,45.3,29.97,SSW,202,12.5,-999.0,98,-99.99,,,0.81,Acu-Link.com,2013-02-25 20:57:00,
2013-02-25 13:12:00,46.6,46.0,29.98,West,270,3.8,-999.0,98,-99.99,,,0.81,Acu-Link.com,2013-02-25 21:12:00,
2013-02-25 13:28:00,46.9,46.4,29.99,North,0,3.8,-999.0,98,-99.99,,,0.81,Acu-Link.com,2013-02-25 21:28:00,
2013-02-25 13:43:00,46.0,45.5,29.99,SSW,202,8.3,-999.0,98,-99.99,,,0.81,Acu-Link.com,2013-02-25 21:43:00,
2013-02-25 13:58:00,45.7,45.1,30.00,East,90,7.8,-999.0,98,-99.99,,,0.81,Acu-Link.com,2013-02-25 21:58:00,
2013-02-25 14:13:00,45.5,45.0,30.02,SSE,157,3.8,-999.0,98,-99.99,,,0.81,Acu-Link.com,2013-02-25 22:13:00,
2013-02-25 14:28:00,45.1,44.6,30.02,NNW,337,4.7,-999.0,98,-99.99,,,0.81,Acu-Link.com,2013-02-25 22:28:00,
2013-02-25 14:44:00,44.8,44.2,30.03,West,270,6.7,-999.0,98,-99.99,,,0.81,Acu-Link.com,2013-02-25 22:44:00,
2013-02-25 14:59:00,45.7,45.1,30.03,NNW,337,6.7,-999.0,98,-99.99,,,0.81,Acu-Link.com,2013-02-25 22:59:00,
2013-02-25 15:14:00,46.0,45.5,30.05,NW,315,8.3,-999.0,98,-99.99,,,0.81,Acu-Link.com,2013-02-25 23:14:00,
2013-02-25 15:29:00,46.4,45.9,30.05,SSW,202,11.4,-999.0,98,-99.99,,,0.81,Acu-Link.com,2013-02-25 23:29:00,
2013-02-25 15:44:00,46.2,45.7,30.05,WSW,247,5.8,-999.0,98,-99.99,,,0.81,Acu-Link.com,2013-02-25 23:44:00,
2013-02-25 16:00:00,46.6,46.0,30.07,NW,315,8.9,-999.0,98,-99.99,,,0.81,Acu-Link.com,2013-02-26 00:00:00,
2013-02-25 16:15:00,46.6,46.0,30.07,South,180,5.1,-999.0,98,-99.99,,,0.81,Acu-Link.com,2013-02-26 00:15:00,
2013-02-25 16:30:00,46.0,45.5,30.08,SSW,202,5.1,-999.0,98,-99.99,,,0.81,Acu-Link.com,2013-02-26 00:30:00,
2013-02-25 16:45:00,46.9,46.4,30.08,SW,225,4.7,-999.0,98,-99.99,,,0.81,Acu-Link.com,2013-02-26 00:45:00,
2013-02-25 17:01:00,46.2,45.7,30.09,WSW,247,7.4,-999.0,98,-99.99,,,0.81,Acu-Link.com,2013-02-26 01:01:00,
2013-02-25 17:16:00,45.0,44.4,30.09,East,90,1.6,-999.0,98,-99.99,,,0.81,Acu-Link.com,2013-02-26 01:16:00,
2013-02-25 17:31:00,44.2,43.7,30.10,WSW,247,1.1,-999.0,98,-99.99,,,0.81,Acu-Link.com,2013-02-26 01:31:00,
2013-02-25 17:46:00,43.2,42.6,30.10,SW,225,1.6,-999.0,98,-99.99,,,0.81,Acu-Link.com,2013-02-26 01:46:00,
2013-02-25 18:01:00,42.3,41.7,30.11,South,180,1.1,-999.0,98,-99.99,,,0.81,Acu-Link.com,2013-02-26 02:01:00,
2013-02-25 18:17:00,41.4,40.8,30.12,SSW,202,1.6,-999.0,98,-99.99,,,0.81,Acu-Link.com,2013-02-26 02:17:00,
2013-02-25 18:32:00,41.0,40.5,30.13,South,180,0.0,-999.0,98,-99.99,,,0.81,Acu-Link.com,2013-02-26 02:32:00,
2013-02-25 18:47:00,40.6,40.1,30.14,SSW,202,2.2,-999.0,98,-99.99,,,0.81,Acu-Link.com,2013-02-26 02:47:00,
2013-02-25 19:02:00,40.3,39.8,30.15,SSW,202,0.0,-999.0,98,-99.99,,,0.81,Acu-Link.com,2013-02-26 03:02:00,
2013-02-25 19:17:00,38.8,38.3,30.16,ESE,112,0.0,-999.0,98,-99.99,,,0.81,Acu-Link.com,2013-02-26 03:17:00,
2013-02-25 19:33:00,38.5,38.0,30.16,South,180,0.0,-999.0,98,-99.99,,,0.81,Acu-Link.com,2013-02-26 03:33:00,
2013-02-25 19:48:00,38.5,38.0,30.16,South,180,3.8,-999.0,98,-99.99,,,0.81,Acu-Link.com,2013-02-26 03:48:00,
2013-02-25 20:03:00,39.2,38.7,30.18,SW,225,1.1,-999.0,98,-99.99,,,0.81,Acu-Link.com,2013-02-26 04:03:00,
2013-02-25 20:18:00,38.8,38.3,30.19,NW,315,1.1,-999.0,98,-99.99,,,0.81,Acu-Link.com,2013-02-26 04:18:00,
2013-02-25 20:33:00,38.1,37.6,30.20,WSW,247,0.0,-999.0,98,-99.99,,,0.81,Acu-Link.com,2013-02-26 04:33:00,
2013-02-25 20:49:00,36.7,36.2,30.21,NNE,22,0.0,-999.0,98,-99.99,,,0.81,Acu-Link.com,2013-02-26 04:49:00,
2013-02-25 21:04:00,35.1,34.6,30.22,West,270,0.0,-999.0,98,-99.99,,,0.81,Acu-Link.com,2013-02-26 05:04:00,
2013-02-25 21:19:00,33.6,33.1,30.22,NNW,337,0.0,-999.0,98,-99.99,,,0.81,Acu-Link.com,2013-02-26 05:19:00,
2013-02-25 21:34:00,33.1,32.6,30.23,South,180,0.0,-999.0,98,-99.99,,,0.81,Acu-Link.com,2013-02-26 05:34:00,
2013-02-25 21:50:00,32.2,31.7,30.24,ESE,112,0.0,-999.0,98,-99.99,,,0.81,Acu-Link.com,2013-02-26 05:50:00,
2013-02-25 22:05:00,32.4,31.9,30.24,ESE,112,0.0,-999.0,98,-99.99,,,0.81,Acu-Link.com,2013-02-26 06:05:00,
2013-02-25 22:20:00,32.4,31.9,30.25,ESE,112,0.0,-999.0,98,-99.99,,,0.81,Acu-Link.com,2013-02-26 06:20:00,
2013-02-25 22:35:00,32.2,31.7,30.25,ENE,67,0.0,-999.0,98,-99.99,,,0.81,Acu-Link.com,2013-02-26 06:35:00,
2013-02-25 22:50:00,32.2,31.7,30.26,SE,135,0.0,-999.0,98,-99.99,,,0.81,Acu-Link.com,2013-02-26 06:50:00,
2013-02-25 23:06:00,31.6,31.1,30.26,SSE,157,0.0,-999.0,98,-99.99,,,0.81,Acu-Link.com,2013-02-26 07:06:00,
2013-02-25 23:21:00,31.5,31.0,30.26,NNW,337,0.0,-999.0,98,-99.99,,,0.81,Acu-Link.com,2013-02-26 07:21:00,
2013-02-25 23:36:00,31.6,31.1,30.28,SE,135,0.0,-999.0,98,-99.99,,,0.81,Acu-Link.com,2013-02-26 07:36:00,
2013-02-25 23:51:00,32.4,31.9,30.28,NNE,22,0.0,-999.0,98,-99.99,,,0.81,Acu-Link.com,2013-02-26 07:51:00,